sensor_id;sensor_type;location;lat;lon;timestamp;temperature;humidity
15184;DHT22;7693;49.266;7.104;2024-03-08T06:18:38;1.90;99.90
15184;DHT22;7693;49.266;7.104;2024-03-08T06:21:05;1.90;99.90
15184;DHT22;7693;49.266;7.104;2024-03-08T06:23:34;2.00;99.90
15184;DHT22;7693;49.266;7.104;2024-03-08T06:25:59;2.00;99.90
15184;DHT22;7693;49.266;7.104;2024-03-08T06:28:25;2.00;99.90
15184;DHT22;7693;49.266;7.104;2024-03-08T06:30:51;2.00;99.90
15184;DHT22;7693;49.266;7.104;2024-03-08T06:33:17;2.10;99.90
15184;DHT22;7693;49.266;7.104;2024-03-08T06:35:43;2.10;99.90
15184;DHT22;7693;49.266;7.104;2024-03-08T06:38:09;2.10;99.90
15184;DHT22;7693;49.266;7.104;2024-03-08T06:40:35;2.10;99.90
15184;DHT22;7693;49.266;7.104;2024-03-08T06:43:00;2.20;99.90
15184;DHT22;7693;49.266;7.104;2024-03-08T06:45:26;2.20;99.90
15184;DHT22;7693;49.266;7.104;2024-03-08T06:47:52;2.30;99.90
15184;DHT22;7693;49.266;7.104;2024-03-08T06:50:17;2.30;99.90
15184;DHT22;7693;49.266;7.104;2024-03-08T06:52:43;2.30;99.90
15184;DHT22;7693;49.266;7.104;2024-03-08T06:55:10;2.40;99.90
15184;DHT22;7693;49.266;7.104;2024-03-08T06:57:41;2.50;99.90
15184;DHT22;7693;49.266;7.104;2024-03-08T07:00:08;2.50;99.90
15184;DHT22;7693;49.266;7.104;2024-03-08T07:02:42;2.50;99.90
15184;DHT22;7693;49.266;7.104;2024-03-08T07:05:11;2.60;99.90
15184;DHT22;7693;49.266;7.104;2024-03-08T07:07:36;2.60;99.90
15184;DHT22;7693;49.266;7.104;2024-03-08T07:10:03;2.70;99.90
15184;DHT22;7693;49.266;7.104;2024-03-08T07:12:28;2.70;99.90
15184;DHT22;7693;49.266;7.104;2024-03-08T07:14:54;2.80;99.90
15184;DHT22;7693;49.266;7.104;2024-03-08T07:17:20;2.90;99.90
15184;DHT22;7693;49.266;7.104;2024-03-08T07:19:45;3.20;99.90
15184;DHT22;7693;49.266;7.104;2024-03-08T07:22:11;3.40;99.90
15184;DHT22;7693;49.266;7.104;2024-03-08T07:24:37;3.50;99.90
15184;DHT22;7693;49.266;7.104;2024-03-08T07:27:23;3.50;99.90
15184;DHT22;7693;49.266;7.104;2024-03-08T07:29:49;3.50;99.90
15184;DHT22;7693;49.266;7.104;2024-03-08T07:32:14;3.50;99.90
15184;DHT22;7693;49.266;7.104;2024-03-08T07:34:51;3.50;99.90
15184;DHT22;7693;49.266;7.104;2024-03-08T07:37:20;3.50;99.90
15184;DHT22;7693;49.266;7.104;2024-03-08T07:39:46;3.60;99.90
15184;DHT22;7693;49.266;7.104;2024-03-08T07:42:12;3.60;99.90
15184;DHT22;7693;49.266;7.104;2024-03-08T07:44:38;3.60;99.90
15184;DHT22;7693;49.266;7.104;2024-03-08T07:47:04;3.60;99.90
15184;DHT22;7693;49.266;7.104;2024-03-08T07:49:30;3.70;99.90
15184;DHT22;7693;49.266;7.104;2024-03-08T07:51:56;3.80;99.90
15184;DHT22;7693;49.266;7.104;2024-03-08T07:54:23;3.80;99.90
15184;DHT22;7693;49.266;7.104;2024-03-08T07:56:48;3.90;99.90
15184;DHT22;7693;49.266;7.104;2024-03-08T07:59:16;4.00;99.90
15184;DHT22;7693;49.266;7.104;2024-03-08T08:01:41;4.00;99.90
15184;DHT22;7693;49.266;7.104;2024-03-08T08:04:07;4.10;99.90
15184;DHT22;7693;49.266;7.104;2024-03-08T08:06:40;4.10;99.90
15184;DHT22;7693;49.266;7.104;2024-03-08T08:09:09;4.20;99.90
15184;DHT22;7693;49.266;7.104;2024-03-08T08:11:40;4.20;99.90
15184;DHT22;7693;49.266;7.104;2024-03-08T08:14:09;4.30;99.90
15184;DHT22;7693;49.266;7.104;2024-03-08T08:16:36;4.30;99.90
15184;DHT22;7693;49.266;7.104;2024-03-08T08:19:06;4.40;99.90
15184;DHT22;7693;49.266;7.104;2024-03-08T08:21:36;4.50;99.90
15184;DHT22;7693;49.266;7.104;2024-03-08T08:24:03;4.60;99.90
15184;DHT22;7693;49.266;7.104;2024-03-08T08:26:29;4.60;99.90
15184;DHT22;7693;49.266;7.104;2024-03-08T08:28:55;4.70;99.90
15184;DHT22;7693;49.266;7.104;2024-03-08T08:31:20;4.70;99.90
15184;DHT22;7693;49.266;7.104;2024-03-08T08:33:46;4.80;99.90
15184;DHT22;7693;49.266;7.104;2024-03-08T08:36:13;4.80;99.90
15184;DHT22;7693;49.266;7.104;2024-03-08T08:38:39;4.90;99.90
15184;DHT22;7693;49.266;7.104;2024-03-08T08:41:05;4.90;99.90
15184;DHT22;7693;49.266;7.104;2024-03-08T08:43:31;5.00;99.90
15184;DHT22;7693;49.266;7.104;2024-03-08T08:45:58;5.00;99.90
15184;DHT22;7693;49.266;7.104;2024-03-08T08:48:24;5.00;99.90
15184;DHT22;7693;49.266;7.104;2024-03-08T08:50:50;5.20;99.90
15184;DHT22;7693;49.266;7.104;2024-03-08T08:53:17;5.20;99.90
15184;DHT22;7693;49.266;7.104;2024-03-08T08:55:44;5.20;99.90
15184;DHT22;7693;49.266;7.104;2024-03-08T08:58:11;5.30;99.90
15184;DHT22;7693;49.266;7.104;2024-03-08T09:00:37;5.40;99.90
15184;DHT22;7693;49.266;7.104;2024-03-08T09:03:02;5.40;99.90
15184;DHT22;7693;49.266;7.104;2024-03-08T09:05:28;5.40;99.90
15184;DHT22;7693;49.266;7.104;2024-03-08T09:07:54;5.50;99.90
15184;DHT22;7693;49.266;7.104;2024-03-08T09:10:20;5.60;99.90
15184;DHT22;7693;49.266;7.104;2024-03-08T09:12:46;5.60;99.90
15184;DHT22;7693;49.266;7.104;2024-03-08T09:15:12;5.70;99.90
15184;DHT22;7693;49.266;7.104;2024-03-08T09:17:38;5.70;99.90
15184;DHT22;7693;49.266;7.104;2024-03-08T09:20:09;5.80;99.90
15184;DHT22;7693;49.266;7.104;2024-03-08T09:22:35;5.80;99.90
15184;DHT22;7693;49.266;7.104;2024-03-08T09:25:01;5.90;99.90
15184;DHT22;7693;49.266;7.104;2024-03-08T09:27:30;5.90;99.90
15184;DHT22;7693;49.266;7.104;2024-03-08T09:29:56;6.00;99.90
15184;DHT22;7693;49.266;7.104;2024-03-08T09:32:21;6.10;99.90
15184;DHT22;7693;49.266;7.104;2024-03-08T09:34:48;6.20;99.90
15184;DHT22;7693;49.266;7.104;2024-03-08T09:37:13;6.20;99.90
15184;DHT22;7693;49.266;7.104;2024-03-08T09:39:39;6.20;99.90
15184;DHT22;7693;49.266;7.104;2024-03-08T09:42:05;6.30;99.90
15184;DHT22;7693;49.266;7.104;2024-03-08T09:44:31;6.40;99.90
15184;DHT22;7693;49.266;7.104;2024-03-08T09:46:58;6.50;99.90
15184;DHT22;7693;49.266;7.104;2024-03-08T09:49:24;6.60;99.90
15184;DHT22;7693;49.266;7.104;2024-03-08T09:51:50;6.70;99.90
15184;DHT22;7693;49.266;7.104;2024-03-08T09:54:17;6.80;99.90
15184;DHT22;7693;49.266;7.104;2024-03-08T09:56:43;6.80;99.90
15184;DHT22;7693;49.266;7.104;2024-03-08T09:59:10;6.90;99.90
15184;DHT22;7693;49.266;7.104;2024-03-08T10:01:48;6.90;99.90
15184;DHT22;7693;49.266;7.104;2024-03-08T10:04:13;6.90;99.90
15184;DHT22;7693;49.266;7.104;2024-03-08T10:06:42;6.90;99.90
15184;DHT22;7693;49.266;7.104;2024-03-08T10:09:09;7.00;99.90
15184;DHT22;7693;49.266;7.104;2024-03-08T10:11:35;7.00;99.90
15184;DHT22;7693;49.266;7.104;2024-03-08T10:14:01;7.10;99.90
15184;DHT22;7693;49.266;7.104;2024-03-08T10:16:30;7.10;99.90
15184;DHT22;7693;49.266;7.104;2024-03-08T10:18:59;7.20;99.90
15184;DHT22;7693;49.266;7.104;2024-03-08T10:21:26;7.30;99.90
15184;DHT22;7693;49.266;7.104;2024-03-08T10:23:52;7.30;99.90
15184;DHT22;7693;49.266;7.104;2024-03-08T10:26:19;7.40;99.90
15184;DHT22;7693;49.266;7.104;2024-03-08T10:28:51;7.50;99.90
15184;DHT22;7693;49.266;7.104;2024-03-08T10:31:18;7.50;99.90
15184;DHT22;7693;49.266;7.104;2024-03-08T10:33:45;7.60;99.90
15184;DHT22;7693;49.266;7.104;2024-03-08T10:36:13;7.70;99.90
15184;DHT22;7693;49.266;7.104;2024-03-08T10:38:40;7.70;99.90
15184;DHT22;7693;49.266;7.104;2024-03-08T10:41:07;7.80;99.90
15184;DHT22;7693;49.266;7.104;2024-03-08T10:44:07;7.90;99.90
15184;DHT22;7693;49.266;7.104;2024-03-08T10:49:31;8.00;99.90
15184;DHT22;7693;49.266;7.104;2024-03-08T10:52:03;8.00;99.90
15184;DHT22;7693;49.266;7.104;2024-03-08T10:54:30;8.00;99.90
15184;DHT22;7693;49.266;7.104;2024-03-08T10:56:57;8.10;99.90
15184;DHT22;7693;49.266;7.104;2024-03-08T10:59:24;8.20;99.90
15184;DHT22;7693;49.266;7.104;2024-03-08T11:01:50;8.30;99.90
15184;DHT22;7693;49.266;7.104;2024-03-08T11:04:16;8.40;99.90
15184;DHT22;7693;49.266;7.104;2024-03-08T11:06:46;8.50;99.90
15184;DHT22;7693;49.266;7.104;2024-03-08T11:09:31;8.50;99.90
15184;DHT22;7693;49.266;7.104;2024-03-08T11:12:23;8.60;99.90
15184;DHT22;7693;49.266;7.104;2024-03-08T11:14:56;8.70;99.90
15184;DHT22;7693;49.266;7.104;2024-03-08T11:19:58;8.80;99.90
15184;DHT22;7693;49.266;7.104;2024-03-08T11:22:28;8.70;99.90
15184;DHT22;7693;49.266;7.104;2024-03-08T11:25:02;8.80;99.90
15184;DHT22;7693;49.266;7.104;2024-03-08T11:27:31;8.80;99.90
15184;DHT22;7693;49.266;7.104;2024-03-08T11:30:08;8.80;99.90
15184;DHT22;7693;49.266;7.104;2024-03-08T11:32:45;8.90;99.90
15184;DHT22;7693;49.266;7.104;2024-03-08T11:35:21;9.00;99.90
15184;DHT22;7693;49.266;7.104;2024-03-08T11:37:50;9.10;99.90
15184;DHT22;7693;49.266;7.104;2024-03-08T11:40:17;9.20;99.90
15184;DHT22;7693;49.266;7.104;2024-03-08T11:42:48;9.20;99.90
15184;DHT22;7693;49.266;7.104;2024-03-08T11:45:15;9.30;99.90
15184;DHT22;7693;49.266;7.104;2024-03-08T11:47:45;9.30;99.90
15184;DHT22;7693;49.266;7.104;2024-03-08T11:50:12;9.40;99.90
15184;DHT22;7693;49.266;7.104;2024-03-08T11:52:38;9.40;99.90
15184;DHT22;7693;49.266;7.104;2024-03-08T11:55:05;9.40;99.90
15184;DHT22;7693;49.266;7.104;2024-03-08T11:57:31;9.40;99.90
15184;DHT22;7693;49.266;7.104;2024-03-08T11:59:58;9.40;99.90
15184;DHT22;7693;49.266;7.104;2024-03-08T12:02:24;9.50;99.90
15184;DHT22;7693;49.266;7.104;2024-03-08T12:04:57;9.50;99.90
15184;DHT22;7693;49.266;7.104;2024-03-08T15:33:39;10.90;99.90
15184;DHT22;7693;49.266;7.104;2024-03-08T15:36:14;10.70;99.90
15184;DHT22;7693;49.266;7.104;2024-03-08T15:38:41;10.60;99.90
15184;DHT22;7693;49.266;7.104;2024-03-08T15:41:09;10.40;99.90
15184;DHT22;7693;49.266;7.104;2024-03-08T15:43:39;10.20;99.90
15184;DHT22;7693;49.266;7.104;2024-03-08T15:46:06;10.10;99.90
15184;DHT22;7693;49.266;7.104;2024-03-08T15:48:33;10.10;99.90
15184;DHT22;7693;49.266;7.104;2024-03-08T15:51:01;10.00;99.90
15184;DHT22;7693;49.266;7.104;2024-03-08T15:53:34;9.90;99.90
15184;DHT22;7693;49.266;7.104;2024-03-08T15:56:00;9.80;99.90
15184;DHT22;7693;49.266;7.104;2024-03-08T15:58:28;9.70;99.90
15184;DHT22;7693;49.266;7.104;2024-03-08T16:00:56;9.60;99.90
15184;DHT22;7693;49.266;7.104;2024-03-08T16:03:22;9.60;99.90
15184;DHT22;7693;49.266;7.104;2024-03-08T16:05:48;9.60;99.90
15184;DHT22;7693;49.266;7.104;2024-03-08T16:08:16;9.60;99.90
15184;DHT22;7693;49.266;7.104;2024-03-08T16:10:46;9.50;99.90
15184;DHT22;7693;49.266;7.104;2024-03-08T16:13:16;9.60;99.90
15184;DHT22;7693;49.266;7.104;2024-03-08T16:15:43;9.60;99.90
15184;DHT22;7693;49.266;7.104;2024-03-08T16:18:11;9.50;99.90
15184;DHT22;7693;49.266;7.104;2024-03-08T16:20:38;9.50;99.90
15184;DHT22;7693;49.266;7.104;2024-03-08T16:23:03;9.40;99.90
15184;DHT22;7693;49.266;7.104;2024-03-08T16:25:30;9.40;99.90
15184;DHT22;7693;49.266;7.104;2024-03-08T16:27:56;9.30;99.90
15184;DHT22;7693;49.266;7.104;2024-03-08T16:30:21;9.20;99.90
15184;DHT22;7693;49.266;7.104;2024-03-08T16:32:49;9.10;99.90
15184;DHT22;7693;49.266;7.104;2024-03-08T16:35:20;9.00;99.90
15184;DHT22;7693;49.266;7.104;2024-03-08T16:37:47;8.90;99.90
15184;DHT22;7693;49.266;7.104;2024-03-08T16:40:17;8.80;99.90
15184;DHT22;7693;49.266;7.104;2024-03-08T16:42:52;8.80;99.90
15184;DHT22;7693;49.266;7.104;2024-03-08T16:45:19;8.70;99.90
15184;DHT22;7693;49.266;7.104;2024-03-08T16:47:45;8.70;99.90
15184;DHT22;7693;49.266;7.104;2024-03-08T16:50:11;8.60;99.90
15184;DHT22;7693;49.266;7.104;2024-03-08T16:52:40;8.60;99.90
15184;DHT22;7693;49.266;7.104;2024-03-08T16:55:06;8.60;99.90
15184;DHT22;7693;49.266;7.104;2024-03-08T16:57:35;8.50;99.90
15184;DHT22;7693;49.266;7.104;2024-03-08T17:00:02;8.50;99.90
15184;DHT22;7693;49.266;7.104;2024-03-08T17:02:35;8.40;99.90
15184;DHT22;7693;49.266;7.104;2024-03-08T17:05:03;8.40;99.90
15184;DHT22;7693;49.266;7.104;2024-03-08T17:07:32;8.40;99.90
15184;DHT22;7693;49.266;7.104;2024-03-08T17:09:59;8.30;99.90
15184;DHT22;7693;49.266;7.104;2024-03-08T17:12:27;8.30;99.90
15184;DHT22;7693;49.266;7.104;2024-03-08T17:14:54;8.20;99.90
15184;DHT22;7693;49.266;7.104;2024-03-08T17:17:19;8.20;99.90
15184;DHT22;7693;49.266;7.104;2024-03-08T17:19:46;8.10;99.90
15184;DHT22;7693;49.266;7.104;2024-03-08T17:22:11;8.10;99.90
15184;DHT22;7693;49.266;7.104;2024-03-08T17:24:37;8.00;99.90
15184;DHT22;7693;49.266;7.104;2024-03-08T17:27:04;8.00;99.90
15184;DHT22;7693;49.266;7.104;2024-03-08T17:29:32;8.00;99.90
15184;DHT22;7693;49.266;7.104;2024-03-08T17:31:58;7.90;99.90
15184;DHT22;7693;49.266;7.104;2024-03-08T17:34:24;7.90;99.90
15184;DHT22;7693;49.266;7.104;2024-03-08T17:36:53;7.80;99.90
15184;DHT22;7693;49.266;7.104;2024-03-08T17:39:23;7.80;99.90
15184;DHT22;7693;49.266;7.104;2024-03-08T17:41:54;7.70;99.90
15184;DHT22;7693;49.266;7.104;2024-03-08T17:44:20;7.70;99.90
15184;DHT22;7693;49.266;7.104;2024-03-08T17:46:48;7.70;99.90
15184;DHT22;7693;49.266;7.104;2024-03-08T17:49:17;7.70;99.90
15184;DHT22;7693;49.266;7.104;2024-03-08T17:51:44;7.60;99.90
15184;DHT22;7693;49.266;7.104;2024-03-08T17:54:10;7.60;99.90
15184;DHT22;7693;49.266;7.104;2024-03-08T17:56:42;7.50;99.90
15184;DHT22;7693;49.266;7.104;2024-03-08T17:59:09;7.50;99.90
15184;DHT22;7693;49.266;7.104;2024-03-08T18:01:38;7.50;99.90
15184;DHT22;7693;49.266;7.104;2024-03-08T18:04:07;7.50;99.90
15184;DHT22;7693;49.266;7.104;2024-03-08T18:06:34;7.50;99.90
15184;DHT22;7693;49.266;7.104;2024-03-08T18:09:06;7.50;99.90
15184;DHT22;7693;49.266;7.104;2024-03-08T18:11:38;7.50;99.90
15184;DHT22;7693;49.266;7.104;2024-03-08T18:14:04;7.50;99.90
15184;DHT22;7693;49.266;7.104;2024-03-08T18:16:32;7.50;99.90
15184;DHT22;7693;49.266;7.104;2024-03-08T18:19:03;7.40;99.90
15184;DHT22;7693;49.266;7.104;2024-03-08T18:21:36;7.40;99.90
15184;DHT22;7693;49.266;7.104;2024-03-08T18:24:05;7.40;99.90
15184;DHT22;7693;49.266;7.104;2024-03-08T18:26:31;7.40;99.90
15184;DHT22;7693;49.266;7.104;2024-03-08T18:29:00;7.40;99.90
15184;DHT22;7693;49.266;7.104;2024-03-08T18:31:28;7.40;99.90
15184;DHT22;7693;49.266;7.104;2024-03-08T18:33:56;7.40;99.90
15184;DHT22;7693;49.266;7.104;2024-03-08T18:36:23;7.30;99.90
15184;DHT22;7693;49.266;7.104;2024-03-08T18:38:48;7.30;99.90
15184;DHT22;7693;49.266;7.104;2024-03-08T18:41:14;7.30;99.90
15184;DHT22;7693;49.266;7.104;2024-03-08T18:43:40;7.30;99.90
15184;DHT22;7693;49.266;7.104;2024-03-08T18:46:06;7.30;99.90
15184;DHT22;7693;49.266;7.104;2024-03-08T18:48:31;7.20;99.90
15184;DHT22;7693;49.266;7.104;2024-03-08T18:50:57;7.20;99.90
15184;DHT22;7693;49.266;7.104;2024-03-08T18:53:25;7.20;99.90
15184;DHT22;7693;49.266;7.104;2024-03-08T18:55:50;7.10;99.90
15184;DHT22;7693;49.266;7.104;2024-03-08T18:58:17;7.10;99.90
15184;DHT22;7693;49.266;7.104;2024-03-08T19:00:43;7.10;99.90
15184;DHT22;7693;49.266;7.104;2024-03-08T19:03:15;7.00;99.90
15184;DHT22;7693;49.266;7.104;2024-03-08T19:05:42;7.00;99.90
15184;DHT22;7693;49.266;7.104;2024-03-08T19:08:11;7.00;99.90
15184;DHT22;7693;49.266;7.104;2024-03-08T19:10:38;7.00;99.90
15184;DHT22;7693;49.266;7.104;2024-03-08T19:13:04;6.90;99.90
15184;DHT22;7693;49.266;7.104;2024-03-08T19:15:31;6.90;99.90
15184;DHT22;7693;49.266;7.104;2024-03-08T19:17:58;6.90;99.90
15184;DHT22;7693;49.266;7.104;2024-03-08T19:20:26;6.90;99.90
15184;DHT22;7693;49.266;7.104;2024-03-08T19:22:53;6.90;99.90
15184;DHT22;7693;49.266;7.104;2024-03-08T19:25:23;6.90;99.90
15184;DHT22;7693;49.266;7.104;2024-03-08T19:27:57;6.90;99.90
15184;DHT22;7693;49.266;7.104;2024-03-08T19:30:23;6.90;99.90
15184;DHT22;7693;49.266;7.104;2024-03-08T19:32:53;6.90;99.90
15184;DHT22;7693;49.266;7.104;2024-03-08T19:35:21;6.90;99.90
15184;DHT22;7693;49.266;7.104;2024-03-08T19:37:49;6.80;99.90
15184;DHT22;7693;49.266;7.104;2024-03-08T19:40:17;6.90;99.90
15184;DHT22;7693;49.266;7.104;2024-03-08T19:42:53;6.80;99.90
15184;DHT22;7693;49.266;7.104;2024-03-08T19:45:23;6.80;99.90
15184;DHT22;7693;49.266;7.104;2024-03-08T19:47:54;6.80;99.90
15184;DHT22;7693;49.266;7.104;2024-03-08T19:50:24;6.80;99.90
15184;DHT22;7693;49.266;7.104;2024-03-08T19:52:53;6.80;99.90
15184;DHT22;7693;49.266;7.104;2024-03-08T19:55:22;6.80;99.90
15184;DHT22;7693;49.266;7.104;2024-03-08T19:57:49;6.80;99.90
15184;DHT22;7693;49.266;7.104;2024-03-08T20:00:20;6.80;99.90
15184;DHT22;7693;49.266;7.104;2024-03-08T20:02:51;6.80;99.90
15184;DHT22;7693;49.266;7.104;2024-03-08T20:05:21;6.80;99.90
15184;DHT22;7693;49.266;7.104;2024-03-08T20:07:47;6.80;99.90
15184;DHT22;7693;49.266;7.104;2024-03-08T20:10:18;6.80;99.90
15184;DHT22;7693;49.266;7.104;2024-03-08T20:12:44;6.80;99.90
15184;DHT22;7693;49.266;7.104;2024-03-08T20:15:12;6.80;99.90
15184;DHT22;7693;49.266;7.104;2024-03-08T20:17:40;6.80;99.90
15184;DHT22;7693;49.266;7.104;2024-03-08T20:20:10;6.80;99.90
15184;DHT22;7693;49.266;7.104;2024-03-08T20:22:42;6.80;99.90
15184;DHT22;7693;49.266;7.104;2024-03-08T20:25:11;6.80;99.90
15184;DHT22;7693;49.266;7.104;2024-03-08T20:27:50;6.80;99.90
15184;DHT22;7693;49.266;7.104;2024-03-08T20:30:20;6.90;99.90
15184;DHT22;7693;49.266;7.104;2024-03-08T20:32:54;6.80;99.90
15184;DHT22;7693;49.266;7.104;2024-03-08T20:35:27;6.90;99.90
15184;DHT22;7693;49.266;7.104;2024-03-08T20:37:55;6.90;99.90
15184;DHT22;7693;49.266;7.104;2024-03-08T20:40:25;6.90;99.90
15184;DHT22;7693;49.266;7.104;2024-03-08T20:43:07;6.90;99.90
15184;DHT22;7693;49.266;7.104;2024-03-08T20:45:36;6.90;99.90
15184;DHT22;7693;49.266;7.104;2024-03-08T20:48:03;6.90;99.90
15184;DHT22;7693;49.266;7.104;2024-03-08T20:50:29;6.90;99.90
15184;DHT22;7693;49.266;7.104;2024-03-08T20:52:54;6.90;99.90
15184;DHT22;7693;49.266;7.104;2024-03-08T20:55:20;6.80;99.90
15184;DHT22;7693;49.266;7.104;2024-03-08T20:57:49;6.80;99.90
15184;DHT22;7693;49.266;7.104;2024-03-08T21:00:20;6.80;99.90
15184;DHT22;7693;49.266;7.104;2024-03-08T21:05:35;6.80;99.90
15184;DHT22;7693;49.266;7.104;2024-03-08T21:08:02;6.80;99.90
15184;DHT22;7693;49.266;7.104;2024-03-08T21:10:31;6.80;99.90
15184;DHT22;7693;49.266;7.104;2024-03-08T21:12:57;6.80;99.90
15184;DHT22;7693;49.266;7.104;2024-03-08T21:15:23;6.80;99.90
15184;DHT22;7693;49.266;7.104;2024-03-08T21:17:49;6.80;99.90
15184;DHT22;7693;49.266;7.104;2024-03-08T21:20:15;6.80;99.90
15184;DHT22;7693;49.266;7.104;2024-03-08T21:22:48;6.80;99.90
15184;DHT22;7693;49.266;7.104;2024-03-08T21:25:15;6.80;99.90
15184;DHT22;7693;49.266;7.104;2024-03-08T21:27:44;6.80;99.90
15184;DHT22;7693;49.266;7.104;2024-03-08T21:30:17;6.80;99.90
15184;DHT22;7693;49.266;7.104;2024-03-08T21:32:49;6.80;99.90
15184;DHT22;7693;49.266;7.104;2024-03-08T21:35:15;6.80;99.90
15184;DHT22;7693;49.266;7.104;2024-03-08T21:37:44;6.80;99.90
15184;DHT22;7693;49.266;7.104;2024-03-08T21:40:11;6.80;99.90
15184;DHT22;7693;49.266;7.104;2024-03-08T21:42:40;6.70;99.90
15184;DHT22;7693;49.266;7.104;2024-03-08T21:45:06;6.70;99.90
15184;DHT22;7693;49.266;7.104;2024-03-08T21:47:32;6.70;99.90
15184;DHT22;7693;49.266;7.104;2024-03-08T21:50:01;6.70;99.90
15184;DHT22;7693;49.266;7.104;2024-03-08T21:52:28;6.70;99.90
15184;DHT22;7693;49.266;7.104;2024-03-08T21:54:53;6.70;99.90
15184;DHT22;7693;49.266;7.104;2024-03-08T21:57:19;6.70;99.90
15184;DHT22;7693;49.266;7.104;2024-03-08T21:59:45;6.70;99.90
15184;DHT22;7693;49.266;7.104;2024-03-08T22:02:11;6.70;99.90
15184;DHT22;7693;49.266;7.104;2024-03-08T22:04:37;6.70;99.90
15184;DHT22;7693;49.266;7.104;2024-03-08T22:07:03;6.70;99.90
15184;DHT22;7693;49.266;7.104;2024-03-08T22:09:32;6.70;99.90
15184;DHT22;7693;49.266;7.104;2024-03-08T22:11:59;6.70;99.90
15184;DHT22;7693;49.266;7.104;2024-03-08T22:14:25;6.70;99.90
15184;DHT22;7693;49.266;7.104;2024-03-08T22:16:51;6.70;99.90
15184;DHT22;7693;49.266;7.104;2024-03-08T22:19:17;6.70;99.90
15184;DHT22;7693;49.266;7.104;2024-03-08T22:21:46;6.70;99.90
15184;DHT22;7693;49.266;7.104;2024-03-08T22:24:11;6.70;99.90
15184;DHT22;7693;49.266;7.104;2024-03-08T22:26:38;6.70;99.90
15184;DHT22;7693;49.266;7.104;2024-03-08T22:29:04;6.70;99.90
15184;DHT22;7693;49.266;7.104;2024-03-08T22:31:33;6.70;99.90
15184;DHT22;7693;49.266;7.104;2024-03-08T22:34:00;6.80;99.90
15184;DHT22;7693;49.266;7.104;2024-03-08T22:36:26;6.70;99.90
15184;DHT22;7693;49.266;7.104;2024-03-08T22:38:52;6.70;99.90
15184;DHT22;7693;49.266;7.104;2024-03-08T22:41:17;6.80;99.90
15184;DHT22;7693;49.266;7.104;2024-03-08T22:43:43;6.80;99.90
15184;DHT22;7693;49.266;7.104;2024-03-08T22:46:10;6.80;99.90
15184;DHT22;7693;49.266;7.104;2024-03-08T22:48:36;6.80;99.90
15184;DHT22;7693;49.266;7.104;2024-03-08T22:51:02;6.80;99.90
15184;DHT22;7693;49.266;7.104;2024-03-08T22:53:36;6.80;99.90
15184;DHT22;7693;49.266;7.104;2024-03-08T22:56:03;6.80;99.90
15184;DHT22;7693;49.266;7.104;2024-03-08T22:58:30;6.80;99.90
15184;DHT22;7693;49.266;7.104;2024-03-08T23:00:56;6.70;99.90
15184;DHT22;7693;49.266;7.104;2024-03-08T23:03:23;6.70;99.90
15184;DHT22;7693;49.266;7.104;2024-03-08T23:05:52;6.70;99.90
15184;DHT22;7693;49.266;7.104;2024-03-08T23:08:19;6.70;99.90
15184;DHT22;7693;49.266;7.104;2024-03-08T23:10:46;6.70;99.90
15184;DHT22;7693;49.266;7.104;2024-03-08T23:13:12;6.80;99.90
15184;DHT22;7693;49.266;7.104;2024-03-08T23:15:38;6.70;99.90
15184;DHT22;7693;49.266;7.104;2024-03-08T23:18:07;6.70;99.90
